createdAt,value
2019-04-21T00:00:11.822Z,8.40
2019-04-21T00:02:42.374Z,8.20
2019-04-21T00:05:49.625Z,8.20
2019-04-21T00:08:01.214Z,7.90
2019-04-21T00:10:35.683Z,7.60
2019-04-21T00:12:54.758Z,7.50
2019-04-21T00:15:19.376Z,7.50
2019-04-21T00:17:39.054Z,7.50
2019-04-21T00:20:20.482Z,7.50
2019-04-21T00:22:52.078Z,7.50
2019-04-21T00:25:23.535Z,7.50
2019-04-21T00:27:57.656Z,7.50
2019-04-21T00:30:27.476Z,7.40
2019-04-21T00:32:53.510Z,7.40
2019-04-21T00:35:14.101Z,7.40
2019-04-21T00:38:00.306Z,7.20
2019-04-21T00:40:39.822Z,7.20
2019-04-21T00:43:00.528Z,7.10
2019-04-21T00:45:23.409Z,7.20
2019-04-21T00:48:05.929Z,7.30
2019-04-21T00:50:40.694Z,7.20
2019-04-21T00:53:04.719Z,7.20
2019-04-21T00:55:45.166Z,7.20
2019-04-21T00:58:17.204Z,7.10
2019-04-21T01:00:46.365Z,6.90
2019-04-21T01:03:17.145Z,6.90
2019-04-21T01:05:48.337Z,6.90
2019-04-21T01:08:13.149Z,6.90
2019-04-21T01:10:33.244Z,6.80
2019-04-21T01:13:15.910Z,6.80
2019-04-21T01:15:43.956Z,6.80
2019-04-21T01:18:10.766Z,6.70
2019-04-21T01:20:21.546Z,6.50
2019-04-21T01:22:49.863Z,6.60
2019-04-21T01:25:27.430Z,6.60
2019-04-21T01:28:05.014Z,6.50
2019-04-21T01:30:43.004Z,6.40
2019-04-21T01:33:08.200Z,6.40
2019-04-21T01:35:39.992Z,6.40
2019-04-21T01:38:06.755Z,6.30
2019-04-21T01:40:43.340Z,6.20
2019-04-21T01:43:07.623Z,6.30
2019-04-21T01:45:37.057Z,6.40
2019-04-21T01:48:06.511Z,6.40
2019-04-21T01:50:36.528Z,6.30
2019-04-21T01:53:18.788Z,6.10
2019-04-21T01:55:54.412Z,6.00
2019-04-21T01:58:25.521Z,6.10
2019-04-21T02:01:00.066Z,6.10
2019-04-21T02:03:54.462Z,6.00
2019-04-21T02:06:11.015Z,6.20
2019-04-21T02:08:34.028Z,6.20
2019-04-21T02:11:05.218Z,6.10
2019-04-21T02:13:35.192Z,6.00
2019-04-21T02:16:06.787Z,5.90
2019-04-21T02:18:35.234Z,5.80
2019-04-21T02:20:53.846Z,5.60
2019-04-21T02:23:43.962Z,5.60
2019-04-21T02:26:08.026Z,5.50
2019-04-21T02:28:42.463Z,5.50
2019-04-21T02:31:22.623Z,5.70
2019-04-21T02:33:48.976Z,5.50
2019-04-21T02:38:48.216Z,5.40
2019-04-21T02:41:05.705Z,5.40
2019-04-21T02:43:46.180Z,5.40
2019-04-21T02:46:13.873Z,5.40
2019-04-21T02:48:48.350Z,5.40
2019-04-21T02:51:23.883Z,5.40
2019-04-21T02:56:18.066Z,5.40
2019-04-21T02:58:53.054Z,5.40
2019-04-21T03:01:40.412Z,5.30
2019-04-21T03:04:32.176Z,5.10
2019-04-21T03:07:12.526Z,5.10
2019-04-21T03:14:46.152Z,5.20
2019-04-21T03:17:09.644Z,5.10
2019-04-21T03:19:48.146Z,5.10
2019-04-21T03:22:14.500Z,5.20
2019-04-21T03:24:54.115Z,5.30
2019-04-21T03:27:35.565Z,5.10
2019-04-21T03:29:37.032Z,5.10
2019-04-21T03:32:31.106Z,5.00
2019-04-21T03:37:19.208Z,4.70
2019-04-21T03:39:44.901Z,4.70
2019-04-21T03:47:15.455Z,4.80
2019-04-21T03:49:47.419Z,4.70
2019-04-21T03:52:11.807Z,4.60
2019-04-21T03:54:41.564Z,4.60
2019-04-21T03:59:38.039Z,4.60
2019-04-21T04:02:23.000Z,4.60
2019-04-21T04:10:02.905Z,4.60
2019-04-21T04:12:28.005Z,4.50
2019-04-21T04:14:55.450Z,4.50
2019-04-21T04:17:25.511Z,4.50
2019-04-21T04:19:54.654Z,4.40
2019-04-21T04:22:31.903Z,4.50
2019-04-21T04:25:04.981Z,4.50
2019-04-21T04:29:59.275Z,4.20
2019-04-21T04:32:28.623Z,4.10
2019-04-21T04:35:03.372Z,4.10
2019-04-21T04:42:40.736Z,4.20
2019-04-21T04:45:14.999Z,4.10
2019-04-21T04:47:37.073Z,4.10
2019-04-21T04:50:07.682Z,4.20
2019-04-21T04:55:03.761Z,4.40
2019-04-21T05:05:15.381Z,4.40
2019-04-21T05:07:43.035Z,4.40
2019-04-21T05:10:18.744Z,4.40
2019-04-21T05:12:29.413Z,4.50
2019-04-21T05:15:04.824Z,4.50
2019-04-21T05:17:37.893Z,4.60
2019-04-21T05:20:08.888Z,4.70
2019-04-21T05:24:50.971Z,4.90
2019-04-21T05:27:54.044Z,5.10
2019-04-21T05:30:26.638Z,5.20
2019-04-21T05:33:00.065Z,5.30
2019-04-21T05:35:46.260Z,5.40
2019-04-21T05:38:16.993Z,5.60
2019-04-21T05:40:39.902Z,5.70
2019-04-21T05:43:17.544Z,5.90
2019-04-21T05:45:50.118Z,6.00
2019-04-21T05:48:28.298Z,6.20
2019-04-21T05:50:56.590Z,6.40
2019-04-21T05:53:42.181Z,6.50
2019-04-21T05:56:03.376Z,6.80
2019-04-21T05:58:28.446Z,7.00
2019-04-21T06:03:44.799Z,7.50
2019-04-21T06:06:20.703Z,7.80
2019-04-21T06:08:52.695Z,8.00
2019-04-21T06:11:13.451Z,8.20
2019-04-21T06:16:07.545Z,8.70
2019-04-21T06:21:10.810Z,9.20
2019-04-21T06:23:40.180Z,9.40
2019-04-21T06:26:28.820Z,9.70
2019-04-21T06:28:46.693Z,9.80
2019-04-21T06:33:46.008Z,10.30
2019-04-21T06:36:30.848Z,10.60
2019-04-21T06:46:33.536Z,11.70
2019-04-21T06:48:57.070Z,12.00
2019-04-21T06:51:27.545Z,12.40
2019-04-21T06:53:59.523Z,12.70
2019-04-21T06:56:30.932Z,12.90
2019-04-21T06:58:51.758Z,13.40
2019-04-21T07:01:26.606Z,13.60
2019-04-21T07:04:01.767Z,13.90
2019-04-21T07:06:28.158Z,14.20
2019-04-21T07:09:06.357Z,14.40
2019-04-21T07:11:19.907Z,14.80
2019-04-21T07:13:55.137Z,15.10
2019-04-21T07:16:26.986Z,15.30
2019-04-21T07:19:00.014Z,15.60
2019-04-21T07:21:31.128Z,15.90
2019-04-21T07:24:00.512Z,16.10
2019-04-21T07:26:25.098Z,16.50
2019-04-21T07:29:01.790Z,16.80
2019-04-21T07:31:31.897Z,17.10
2019-04-21T07:34:00.210Z,17.40
2019-04-21T07:36:38.140Z,17.70
2019-04-21T07:38:57.169Z,17.90
2019-04-21T07:41:18.419Z,18.30
2019-04-21T07:43:53.464Z,18.60
2019-04-21T07:46:22.348Z,18.70
2019-04-21T07:49:01.721Z,18.90
2019-04-21T07:51:52.114Z,19.20
2019-04-21T07:54:26.960Z,19.40
2019-04-21T07:56:33.196Z,19.50
2019-04-21T07:59:25.606Z,19.80
2019-04-21T08:01:50.382Z,20.00
2019-04-21T08:04:38.275Z,20.30
2019-04-21T08:06:49.466Z,20.60
2019-04-21T08:09:11.889Z,20.80
2019-04-21T08:11:45.685Z,21.10
2019-04-21T08:14:19.476Z,21.40
2019-04-21T08:16:56.029Z,21.60
2019-04-21T08:19:18.779Z,21.80
2019-04-21T08:21:57.574Z,21.90
2019-04-21T08:24:32.754Z,22.00
2019-04-21T08:27:03.244Z,22.30
2019-04-21T08:32:06.869Z,22.80
2019-04-21T08:34:28.346Z,22.90
2019-04-21T08:36:54.886Z,23.10
2019-04-21T08:39:32.930Z,23.30
2019-04-21T08:41:55.976Z,23.50
2019-04-21T08:44:35.251Z,23.80
2019-04-21T08:46:58.781Z,24.00
2019-04-21T08:49:26.427Z,24.50
2019-04-21T08:52:04.719Z,24.70
2019-04-21T08:54:30.379Z,24.90
2019-04-21T08:57:10.194Z,24.90
2019-04-21T08:59:51.873Z,25.30
2019-04-21T09:02:26.293Z,25.50
2019-04-21T09:04:52.838Z,25.50
2019-04-21T09:07:28.702Z,25.90
2019-04-21T09:09:51.604Z,25.90
2019-04-21T09:12:22.978Z,25.90
2019-04-21T09:14:54.222Z,26.10
2019-04-21T09:17:19.136Z,26.50
2019-04-21T09:20:13.970Z,26.30
2019-04-21T09:22:16.799Z,26.60
2019-04-21T09:24:53.580Z,26.60
2019-04-21T09:27:23.238Z,26.60
2019-04-21T09:29:39.269Z,26.70
2019-04-21T09:32:08.657Z,26.80
2019-04-21T09:34:40.034Z,26.60
2019-04-21T09:37:16.477Z,26.30
2019-04-21T09:39:38.414Z,26.30
2019-04-21T09:42:04.756Z,26.60
2019-04-21T09:44:37.207Z,27.00
2019-04-21T09:47:05.092Z,26.90
2019-04-21T09:49:35.136Z,27.40
2019-04-21T09:52:08.879Z,27.90
2019-04-21T09:54:37.067Z,28.20
2019-04-21T09:57:07.553Z,28.20
2019-04-21T09:59:37.339Z,28.20
2019-04-21T10:02:10.006Z,28.30
2019-04-21T10:04:33.637Z,28.40
2019-04-21T10:07:02.452Z,28.90
2019-04-21T10:09:31.090Z,28.60
2019-04-21T10:12:00.742Z,28.80
2019-04-21T10:14:29.096Z,28.40
2019-04-21T10:17:15.352Z,28.30
2019-04-21T10:19:44.124Z,28.70
2019-04-21T10:22:12.676Z,29.10
2019-04-21T10:24:40.898Z,29.30
2019-04-21T10:27:12.226Z,29.50
2019-04-21T10:29:42.867Z,29.90
2019-04-21T10:32:09.208Z,29.40
2019-04-21T10:34:37.512Z,29.50
2019-04-21T10:37:07.010Z,29.60
2019-04-21T10:39:35.694Z,29.40
2019-04-21T10:42:04.038Z,29.30
2019-04-21T10:44:32.290Z,29.10
2019-04-21T10:47:00.681Z,29.50
2019-04-21T10:49:29.052Z,29.70
2019-04-21T10:51:57.327Z,30.10
2019-04-21T10:54:27.230Z,29.50
2019-04-21T10:56:56.627Z,29.90
2019-04-21T10:59:25.056Z,29.90
2019-04-21T11:01:54.801Z,30.70
2019-04-21T11:04:34.664Z,30.60
2019-04-21T11:07:05.177Z,30.10
2019-04-21T11:09:29.958Z,30.50
2019-04-21T11:11:58.536Z,30.40
2019-04-21T11:14:29.288Z,30.50
2019-04-21T11:16:58.570Z,30.60
2019-04-21T11:19:26.953Z,30.70
2019-04-21T11:21:55.166Z,30.60
2019-04-21T11:24:23.409Z,30.90
2019-04-21T11:26:53.801Z,31.00
2019-04-21T11:29:23.301Z,30.90
2019-04-21T11:31:51.747Z,30.70
2019-04-21T11:34:21.031Z,31.10
2019-04-21T11:36:50.237Z,31.10
2019-04-21T11:39:37.621Z,31.60
2019-04-21T11:41:59.704Z,31.80
2019-04-21T11:44:29.070Z,31.60
2019-04-21T11:46:58.353Z,31.70
2019-04-21T11:49:30.250Z,31.80
2019-04-21T11:51:56.713Z,32.00
2019-04-21T11:54:24.921Z,31.70
2019-04-21T11:56:53.175Z,31.90
2019-04-21T11:59:21.764Z,32.70
2019-04-21T12:01:50.168Z,33.00
2019-04-21T12:04:18.553Z,33.00
2019-04-21T12:06:48.857Z,32.80
2019-04-21T12:09:16.947Z,33.10
2019-04-21T12:11:45.407Z,33.00
2019-04-21T12:14:14.268Z,33.10
2019-04-21T12:16:43.264Z,32.80
2019-04-21T12:19:12.550Z,33.00
2019-04-21T12:21:54.671Z,33.00
2019-04-21T12:24:13.157Z,32.90
2019-04-21T12:26:42.210Z,33.30
2019-04-21T12:29:11.486Z,33.60
2019-04-21T12:31:57.735Z,33.20
2019-04-21T12:34:26.021Z,32.50
2019-04-21T12:36:55.001Z,32.60
2019-04-21T12:39:23.307Z,32.10
2019-04-21T12:41:51.538Z,32.20
2019-04-21T12:44:20.488Z,31.70
2019-04-21T12:46:50.130Z,32.10
2019-04-21T12:49:18.477Z,32.30
2019-04-21T12:51:48.025Z,32.40
2019-04-21T12:54:17.551Z,32.20
2019-04-21T12:56:45.905Z,32.20
2019-04-21T12:59:14.931Z,32.20
2019-04-21T13:01:43.329Z,31.80
2019-04-21T13:04:11.661Z,32.40
2019-04-21T13:06:41.417Z,31.90
2019-04-21T13:09:13.067Z,32.30
2019-04-21T13:11:39.818Z,31.90
2019-04-21T13:14:08.297Z,32.00
2019-04-21T13:16:37.153Z,32.40
2019-04-21T13:19:05.659Z,32.30
2019-04-21T13:21:34.210Z,32.40
2019-04-21T13:24:03.079Z,32.60
2019-04-21T13:26:42.474Z,32.50
2019-04-21T13:29:02.585Z,32.80
2019-04-21T13:31:34.218Z,32.70
2019-04-21T13:34:04.071Z,32.70
2019-04-21T13:36:33.693Z,32.40
2019-04-21T13:42:02.820Z,32.40
2019-04-21T13:44:21.631Z,31.90
2019-04-21T13:46:49.879Z,31.70
2019-04-21T13:49:19.230Z,31.20
2019-04-21T13:51:48.011Z,31.40
2019-04-21T13:54:19.775Z,31.30
2019-04-21T13:56:48.278Z,31.20
2019-04-21T13:59:16.528Z,30.70
2019-04-21T14:01:45.714Z,30.00
2019-04-21T14:04:15.691Z,29.80
2019-04-21T14:06:44.693Z,30.30
2019-04-21T14:09:13.843Z,30.00
2019-04-21T14:11:43.397Z,29.90
2019-04-21T14:14:12.451Z,30.30
2019-04-21T14:16:42.222Z,29.80
2019-04-21T14:19:10.598Z,30.00
2019-04-21T14:21:39.181Z,30.10
2019-04-21T14:24:08.737Z,29.90
2019-04-21T14:26:38.406Z,29.90
2019-04-21T14:29:07.793Z,29.60
2019-04-21T14:31:36.088Z,29.60
2019-04-21T14:34:05.873Z,29.40
2019-04-21T14:36:34.946Z,28.70
2019-04-21T14:39:04.986Z,28.40
2019-04-21T14:41:33.251Z,28.30
2019-04-21T14:44:02.792Z,28.50
2019-04-21T14:46:51.387Z,28.40
2019-04-21T14:49:47.128Z,28.50
2019-04-21T14:52:36.832Z,28.30
2019-04-21T14:55:08.915Z,28.10
2019-04-21T14:57:39.135Z,28.00
2019-04-21T15:00:13.261Z,27.70
2019-04-21T15:02:41.783Z,27.70
2019-04-21T15:05:11.479Z,27.10
2019-04-21T15:07:41.305Z,26.90
2019-04-21T15:10:15.060Z,26.80
2019-04-21T15:12:39.904Z,26.50
2019-04-21T15:15:09.742Z,26.20
2019-04-21T15:17:38.223Z,26.20
2019-04-21T15:20:11.142Z,25.80
2019-04-21T15:22:36.544Z,25.50
2019-04-21T15:25:06.199Z,25.50
2019-04-21T15:27:34.886Z,25.50
2019-04-21T15:30:04.697Z,25.50
2019-04-21T15:32:33.156Z,25.40
2019-04-21T15:35:02.336Z,25.20
2019-04-21T15:37:31.700Z,25.20
2019-04-21T15:40:12.244Z,25.10
2019-04-21T15:42:30.657Z,25.00
2019-04-21T15:44:59.000Z,24.90
2019-04-21T15:47:28.292Z,24.90
2019-04-21T15:50:03.667Z,24.80
2019-04-21T15:52:27.968Z,24.60
2019-04-21T15:55:05.299Z,24.30
2019-04-21T15:57:52.197Z,24.10
2019-04-21T16:00:28.736Z,23.90
2019-04-21T16:02:58.283Z,23.90
2019-04-21T16:05:26.686Z,23.80
2019-04-21T16:07:56.053Z,23.90
2019-04-21T16:10:34.633Z,23.90
2019-04-21T16:12:55.892Z,23.60
2019-04-21T16:15:24.364Z,23.50
2019-04-21T16:17:53.211Z,23.40
2019-04-21T16:20:21.875Z,23.30
2019-04-21T16:22:50.625Z,23.30
2019-04-21T16:25:21.109Z,23.30
2019-04-21T16:27:49.386Z,23.10
2019-04-21T16:30:17.696Z,23.00
2019-04-21T16:32:46.045Z,22.90
2019-04-21T16:35:15.028Z,22.90
2019-04-21T16:37:45.727Z,22.80
2019-04-21T16:40:14.083Z,22.80
2019-04-21T16:42:42.566Z,22.70
2019-04-21T16:45:10.828Z,22.60
2019-04-21T16:47:40.009Z,22.50
2019-04-21T16:50:09.748Z,22.50
2019-04-21T16:52:40.312Z,22.30
2019-04-21T16:55:11.210Z,22.30
2019-04-21T16:57:43.898Z,22.20
2019-04-21T17:00:26.412Z,22.00
2019-04-21T17:02:43.697Z,22.10
2019-04-21T17:05:12.213Z,22.00
2019-04-21T17:07:40.955Z,21.90
2019-04-21T17:10:10.616Z,21.70
2019-04-21T17:12:39.495Z,21.60
2019-04-21T17:15:25.219Z,21.50
2019-04-21T17:18:00.751Z,21.30
2019-04-21T17:20:19.227Z,21.40
2019-04-21T17:22:39.569Z,21.30
2019-04-21T17:25:08.686Z,21.20
2019-04-21T17:27:37.003Z,21.00
2019-04-21T17:30:08.489Z,21.00
2019-04-21T17:32:42.375Z,21.00
2019-04-21T17:35:08.059Z,20.90
2019-04-21T17:37:36.441Z,20.80
2019-04-21T17:40:07.381Z,20.70
2019-04-21T17:42:44.905Z,20.60
2019-04-21T17:45:08.948Z,20.40
2019-04-21T17:47:45.734Z,20.40
2019-04-21T17:50:09.458Z,20.30
2019-04-21T17:52:45.941Z,20.30
2019-04-21T17:55:18.440Z,20.10
2019-04-21T17:58:01.286Z,20.10
2019-04-21T18:00:53.436Z,20.00
2019-04-21T18:03:07.710Z,19.90
2019-04-21T18:05:32.174Z,19.80
2019-04-21T18:08:00.085Z,19.70
2019-04-21T18:10:32.819Z,19.60
2019-04-21T18:12:52.111Z,19.50
2019-04-21T18:15:30.097Z,19.40
2019-04-21T18:17:44.861Z,19.30
2019-04-21T18:20:15.127Z,19.30
2019-04-21T18:22:50.913Z,19.20
2019-04-21T18:25:31.756Z,19.10
2019-04-21T18:27:50.431Z,18.90
2019-04-21T18:30:42.553Z,18.90
2019-04-21T18:33:21.040Z,18.80
2019-04-21T18:36:05.078Z,18.70
2019-04-21T18:39:09.826Z,18.60
2019-04-21T18:41:34.675Z,18.50
2019-04-21T18:44:36.459Z,18.30
2019-04-21T18:46:58.392Z,18.30
2019-04-21T18:49:15.306Z,18.30
2019-04-21T18:52:02.775Z,18.20
2019-04-21T18:54:41.310Z,18.00
2019-04-21T18:57:04.465Z,17.90
2019-04-21T18:59:31.342Z,17.80
2019-04-21T19:02:02.138Z,17.70
2019-04-21T19:04:30.053Z,17.60
2019-04-21T19:07:06.634Z,17.60
2019-04-21T19:10:07.300Z,17.50
2019-04-21T19:12:12.732Z,17.50
2019-04-21T19:14:39.804Z,17.30
2019-04-21T19:17:40.856Z,17.30
2019-04-21T19:22:12.908Z,17.00
2019-04-21T19:24:49.966Z,16.90
2019-04-21T19:27:19.344Z,16.90
2019-04-21T19:29:55.053Z,16.70
2019-04-21T19:32:21.138Z,16.70
2019-04-21T19:34:32.374Z,16.70
2019-04-21T19:37:04.203Z,16.50
2019-04-21T19:39:42.775Z,16.40
2019-04-21T19:42:08.593Z,16.30
2019-04-21T19:44:47.056Z,16.20
2019-04-21T19:47:15.194Z,16.20
2019-04-21T19:49:50.002Z,16.10
2019-04-21T19:52:05.206Z,16.00
2019-04-21T19:54:35.306Z,15.90
2019-04-21T19:56:57.163Z,15.90
2019-04-21T19:59:34.626Z,15.90
2019-04-21T20:01:56.189Z,15.80
2019-04-21T20:04:33.572Z,15.70
2019-04-21T20:07:02.912Z,15.60
2019-04-21T20:09:40.543Z,15.50
2019-04-21T20:12:10.699Z,15.30
2019-04-21T20:17:08.566Z,15.30
2019-04-21T20:19:24.763Z,15.30
2019-04-21T20:21:53.543Z,15.40
2019-04-21T20:24:26.534Z,15.20
2019-04-21T20:26:59.982Z,15.10
2019-04-21T20:29:37.492Z,15.00
2019-04-21T20:32:17.876Z,14.90
2019-04-21T20:34:38.646Z,14.90
2019-04-21T20:37:09.274Z,14.80
2019-04-21T20:39:25.431Z,14.60
2019-04-21T20:42:01.821Z,14.60
2019-04-21T20:44:37.453Z,14.60
2019-04-21T20:47:03.905Z,14.40
2019-04-21T20:49:34.595Z,14.40
2019-04-21T20:52:10.771Z,14.20
2019-04-21T20:54:36.873Z,14.00
2019-04-21T20:57:18.308Z,13.70
2019-04-21T20:59:31.713Z,13.60
2019-04-21T21:02:05.268Z,13.50
2019-04-21T21:04:31.734Z,13.30
2019-04-21T21:07:20.760Z,13.30
2019-04-21T21:09:35.839Z,13.20
2019-04-21T21:12:24.684Z,13.10
2019-04-21T21:14:40.965Z,13.00
2019-04-21T21:17:22.124Z,12.90
2019-04-21T21:19:43.847Z,12.80
2019-04-21T21:21:59.106Z,12.90
2019-04-21T21:24:41.960Z,12.80
2019-04-21T21:27:09.128Z,12.90
2019-04-21T21:29:33.282Z,12.90
2019-04-21T21:32:16.665Z,12.90
2019-04-21T21:34:41.182Z,12.80
2019-04-21T21:37:21.224Z,12.70
2019-04-21T21:39:49.131Z,12.50
2019-04-21T21:41:57.637Z,12.50
2019-04-21T21:44:24.533Z,12.30
2019-04-21T21:47:00.570Z,12.10
2019-04-21T21:49:35.542Z,12.00
2019-04-21T21:51:59.253Z,11.90
2019-04-21T21:54:22.032Z,11.70
2019-04-21T21:56:50.423Z,11.60
2019-04-21T21:59:22.833Z,11.60
2019-04-21T22:01:52.323Z,11.60
2019-04-21T22:04:25.939Z,11.50
2019-04-21T22:06:55.329Z,11.40
2019-04-21T22:09:18.726Z,11.40
2019-04-21T22:11:49.546Z,11.30
2019-04-21T22:14:24.662Z,11.30
2019-04-21T22:17:06.832Z,11.20
2019-04-21T22:19:36.387Z,11.30
2019-04-21T22:22:06.650Z,11.30
2019-04-21T22:24:37.009Z,11.20
2019-04-21T22:26:47.293Z,11.00
2019-04-21T22:29:19.794Z,11.00
2019-04-21T22:31:48.381Z,10.90
2019-04-21T22:34:21.855Z,10.80
2019-04-21T22:36:56.035Z,10.80
2019-04-21T22:39:35.038Z,10.60
2019-04-21T22:41:49.225Z,10.60
2019-04-21T22:44:16.815Z,10.60
2019-04-21T22:46:54.797Z,10.70
2019-04-21T22:49:16.518Z,10.80
2019-04-21T22:51:48.798Z,10.80
2019-04-21T22:54:22.165Z,10.80
2019-04-21T22:56:53.567Z,10.70
2019-04-21T22:59:20.242Z,10.70
2019-04-21T23:01:49.908Z,10.60
2019-04-21T23:04:15.940Z,10.50
2019-04-21T23:06:44.519Z,10.40
2019-04-21T23:09:12.968Z,10.30
2019-04-21T23:11:45.624Z,10.30
2019-04-21T23:14:13.429Z,10.30
2019-04-21T23:16:44.741Z,10.00
2019-04-21T23:19:28.094Z,9.70
2019-04-21T23:21:57.869Z,9.50
2019-04-21T23:24:34.916Z,9.50
2019-04-21T23:26:53.785Z,9.40
2019-04-21T23:29:39.233Z,9.40
2019-04-21T23:32:01.935Z,9.40
2019-04-21T23:34:19.761Z,9.30
2019-04-21T23:36:49.105Z,9.20
2019-04-21T23:39:16.065Z,9.10
2019-04-21T23:41:46.026Z,9.10
2019-04-21T23:44:13.558Z,9.00
2019-04-21T23:46:42.149Z,9.00
2019-04-21T23:49:21.644Z,9.00
2019-04-21T23:51:50.043Z,9.00
2019-04-21T23:54:11.390Z,8.90
2019-04-21T23:56:43.995Z,8.90
2019-04-21T23:59:11.602Z,8.90
